首页
METAR-TAF:

METAR-TAF

机场 :

Powell River, 不列颠哥伦比亚, 加拿大

纬度: 49-50N, 经度: 124-30W, 海拔: 130米

当前天气观测

该预报发布于10小时和12分钟前的02:00 UTC
风速4节,风向西
温度 24°C
湿度 44%
气压 1015 hPa
能見度: 40.2公里
多云层高于25000英尺
多云层高于26000英尺

METAR: CYPW 210200Z 26004KT 25SM BKN250 BKN260 24/11 A2998 RMK CS7CI1 CI TR CONTRAILS HALO LAST STFD OBS NEXT OBS 211300 UTC SLP153 DENSITY ALT 1500FT

时间: 05:12 (12:12 UTC)


TAF: 丢失

超过4000个机场的气象观测和天气预报(METAR&TAF报告)。

可查询的气象台以黄色和红色小点在地图上表示。

将鼠标移到小点上方,可查看气象台名称。

然后点击查看天气观测和预报。

如需切换地图:点击带黑十字的绿色按钮放大地图;点击带横线的绿色按钮缩小地图;或者点击绿色箭头查看邻近地区的地图。


METAR-TAF: